createdAt,value
2023-01-08T00:01:09.609Z,100453.53
2023-01-08T00:03:37.613Z,100461.72
2023-01-08T00:09:01.973Z,100446.63
2023-01-08T00:11:28.658Z,100435.38
2023-01-08T00:13:55.299Z,100439.44
2023-01-08T00:16:22.028Z,100441.41
2023-01-08T00:18:48.814Z,100435.94
2023-01-08T00:21:15.453Z,100446.72
2023-01-08T00:23:42.249Z,100439.72
2023-01-08T00:26:10.599Z,100443.00
2023-01-08T00:28:38.465Z,100437.44
2023-01-08T00:31:06.591Z,100439.25
2023-01-08T00:33:33.633Z,100439.41
2023-01-08T00:36:01.031Z,100442.25
2023-01-08T00:38:28.987Z,100443.53
2023-01-08T00:40:55.938Z,100430.16
2023-01-08T00:43:22.591Z,100435.97
2023-01-08T00:45:53.851Z,100434.44
2023-01-08T00:48:22.477Z,100437.75
2023-01-08T00:50:50.185Z,100434.84
2023-01-08T00:53:17.285Z,100433.88
2023-01-08T00:55:43.967Z,100426.41
2023-01-08T00:58:11.777Z,100431.09
2023-01-08T01:00:38.606Z,100433.97
2023-01-08T01:03:05.693Z,100432.78
2023-01-08T01:05:32.441Z,100428.91
2023-01-08T01:07:59.127Z,100429.03
2023-01-08T01:10:25.839Z,100416.44
2023-01-08T01:12:52.500Z,100423.88
2023-01-08T01:15:19.422Z,100430.03
2023-01-08T01:17:46.782Z,100424.06
2023-01-08T01:20:16.109Z,100412.31
2023-01-08T01:22:43.489Z,100413.69
2023-01-08T01:25:10.220Z,100418.47
2023-01-08T01:27:36.951Z,100414.09
2023-01-08T01:30:05.002Z,100412.69
2023-01-08T01:32:31.666Z,100400.66
2023-01-08T01:34:58.313Z,100407.59
2023-01-08T01:37:25.093Z,100405.75
2023-01-08T01:39:51.713Z,100403.97
2023-01-08T01:42:38.455Z,100400.84
2023-01-08T01:45:18.851Z,100399.34
2023-01-08T01:48:02.340Z,100414.72
2023-01-08T01:50:44.188Z,100407.88
2023-01-08T01:53:22.932Z,100404.19
2023-01-08T01:55:50.689Z,100413.38
2023-01-08T01:58:20.710Z,100406.88
2023-01-08T02:00:47.770Z,100406.09
2023-01-08T02:03:15.915Z,100415.31
2023-01-08T02:06:06.066Z,100412.38
2023-01-08T02:08:38.483Z,100410.03
2023-01-08T02:11:16.968Z,100410.03
2023-01-08T02:13:54.245Z,100390.19
2023-01-08T02:16:50.432Z,100418.06
2023-01-08T02:19:25.331Z,100417.66
2023-01-08T02:22:13.309Z,100411.41
2023-01-08T02:25:10.616Z,100407.75
2023-01-08T02:27:41.478Z,100412.91
2023-01-08T02:30:09.261Z,100411.31
2023-01-08T02:32:42.011Z,100405.03
2023-01-08T02:35:10.830Z,100408.63
2023-01-08T02:37:38.348Z,100407.34
2023-01-08T02:40:07.991Z,100407.72
2023-01-08T02:42:59.261Z,100412.47
2023-01-08T02:45:48.386Z,100410.56
2023-01-08T02:48:30.008Z,100400.09
2023-01-08T02:51:18.179Z,100393.03
2023-01-08T02:53:51.517Z,100394.75
2023-01-08T02:56:22.451Z,100399.34
2023-01-08T02:58:52.439Z,100390.50
2023-01-08T03:01:22.393Z,100403.66
2023-01-08T03:04:08.309Z,100397.28
2023-01-08T03:06:35.140Z,100400.75
2023-01-08T03:09:02.065Z,100390.56
2023-01-08T03:11:36.837Z,100386.88
2023-01-08T03:14:25.641Z,100396.94
2023-01-08T03:20:14.140Z,100400.44
2023-01-08T03:22:45.229Z,100399.72
2023-01-08T03:25:14.573Z,100389.19
2023-01-08T03:27:46.012Z,100386.47
2023-01-08T03:30:15.779Z,100392.47
2023-01-08T03:32:44.746Z,100396.81
2023-01-08T03:35:16.753Z,100397.31
2023-01-08T03:37:49.347Z,100399.34
2023-01-08T03:40:29.427Z,100399.16
2023-01-08T03:42:57.905Z,100406.53
2023-01-08T03:45:27.486Z,100403.16
2023-01-08T03:47:55.625Z,100401.34
2023-01-08T03:50:25.888Z,100404.59
2023-01-08T03:52:52.668Z,100408.97
2023-01-08T03:55:19.406Z,100410.16
2023-01-08T03:57:46.097Z,100420.59
2023-01-08T04:00:13.401Z,100409.06
2023-01-08T04:02:42.168Z,100398.88
2023-01-08T04:05:09.771Z,100396.59
2023-01-08T04:07:36.401Z,100418.19
2023-01-08T04:10:03.542Z,100430.66
2023-01-08T04:12:30.205Z,100421.66
2023-01-08T04:14:56.836Z,100427.78
2023-01-08T04:17:23.567Z,100419.94
2023-01-08T04:19:50.225Z,100429.72
2023-01-08T04:22:16.881Z,100433.56
2023-01-08T04:24:43.551Z,100428.09
2023-01-08T04:27:10.222Z,100435.00
2023-01-08T04:29:36.866Z,100429.91
2023-01-08T04:32:03.680Z,100438.59
2023-01-08T04:34:30.357Z,100436.56
2023-01-08T04:36:56.999Z,100441.53
2023-01-08T04:39:23.730Z,100435.38
2023-01-08T04:41:50.394Z,100442.13
2023-01-08T04:44:17.117Z,100432.28
2023-01-08T04:46:43.855Z,100430.38
2023-01-08T04:49:11.689Z,100437.63
2023-01-08T04:51:38.352Z,100444.63
2023-01-08T04:54:05.105Z,100444.50
2023-01-08T04:56:31.861Z,100448.91
2023-01-08T04:58:58.977Z,100450.22
2023-01-08T05:01:27.540Z,100443.31
2023-01-08T05:03:56.433Z,100443.19
2023-01-08T05:06:23.575Z,100448.53
2023-01-08T05:08:50.358Z,100439.63
2023-01-08T05:11:17.106Z,100449.97
2023-01-08T05:13:44.055Z,100445.19
2023-01-08T05:16:10.923Z,100427.41
2023-01-08T05:18:37.688Z,100451.34
2023-01-08T05:21:05.265Z,100452.72
2023-01-08T05:23:33.658Z,100418.47
2023-01-08T05:26:01.901Z,100457.06
2023-01-08T05:28:29.087Z,100439.44
2023-01-08T05:30:56.203Z,100456.34
2023-01-08T05:33:23.292Z,100455.19
2023-01-08T05:35:49.963Z,100454.47
2023-01-08T05:38:16.645Z,100454.66
2023-01-08T05:40:43.280Z,100445.47
2023-01-08T05:43:09.912Z,100457.56
2023-01-08T05:45:36.625Z,100455.69
2023-01-08T05:48:07.471Z,100452.34
2023-01-08T05:50:34.833Z,100453.88
2023-01-08T05:53:01.687Z,100438.28
2023-01-08T05:55:28.327Z,100455.16
2023-01-08T05:57:55.065Z,100466.56
2023-01-08T06:00:21.905Z,100464.53
2023-01-08T06:02:48.967Z,100455.53
2023-01-08T06:05:15.856Z,100467.06
2023-01-08T06:07:42.500Z,100474.69
2023-01-08T06:10:09.649Z,100475.22
2023-01-08T06:12:36.480Z,100479.50
2023-01-08T06:15:04.447Z,100472.84
2023-01-08T06:17:31.142Z,100478.59
2023-01-08T06:19:57.941Z,100480.03
2023-01-08T06:22:24.670Z,100488.69
2023-01-08T06:24:51.287Z,100489.84
2023-01-08T06:27:18.506Z,100495.59
2023-01-08T06:29:45.217Z,100503.25
2023-01-08T06:32:11.935Z,100498.13
2023-01-08T06:34:38.607Z,100501.31
2023-01-08T06:37:05.299Z,100504.88
2023-01-08T06:39:32.007Z,100489.91
2023-01-08T06:41:58.692Z,100502.34
2023-01-08T06:44:25.619Z,100505.56
2023-01-08T06:46:52.380Z,100507.66
2023-01-08T06:49:19.926Z,100503.03
2023-01-08T06:51:46.663Z,100505.28
2023-01-08T06:54:13.746Z,100514.47
2023-01-08T06:56:53.067Z,100506.19
2023-01-08T06:59:20.268Z,100514.03
2023-01-08T07:01:47.041Z,100506.41
2023-01-08T07:04:13.805Z,100509.19
2023-01-08T07:06:40.482Z,100509.59
2023-01-08T07:09:07.208Z,100512.59
2023-01-08T07:11:34.229Z,100510.94
2023-01-08T07:14:00.880Z,100505.22
2023-01-08T07:16:27.819Z,100508.72
2023-01-08T07:18:54.556Z,100514.38
2023-01-08T07:21:22.659Z,100514.41
2023-01-08T07:23:50.724Z,100520.94
2023-01-08T07:26:17.841Z,100530.22
2023-01-08T07:28:44.893Z,100529.19
2023-01-08T07:31:11.613Z,100538.69
2023-01-08T07:33:38.432Z,100544.28
2023-01-08T07:36:05.789Z,100539.63
2023-01-08T07:38:32.589Z,100538.34
2023-01-08T07:40:59.367Z,100550.97
2023-01-08T07:43:26.550Z,100545.75
2023-01-08T07:45:53.249Z,100546.34
2023-01-08T07:48:20.351Z,100546.88
2023-01-08T07:50:47.061Z,100552.09
2023-01-08T07:53:17.029Z,100550.75
2023-01-08T07:55:43.971Z,100535.25
2023-01-08T07:58:14.796Z,100548.13
2023-01-08T08:00:41.868Z,100556.03
2023-01-08T08:03:11.843Z,100548.13
2023-01-08T08:05:39.196Z,100558.66
2023-01-08T08:08:10.641Z,100537.66
2023-01-08T08:10:38.392Z,100566.97
2023-01-08T08:13:05.373Z,100557.44
2023-01-08T08:15:33.371Z,100567.63
2023-01-08T08:18:00.085Z,100568.06
2023-01-08T08:20:27.281Z,100562.66
2023-01-08T08:23:07.649Z,100572.75
2023-01-08T08:25:35.064Z,100574.19
2023-01-08T08:28:03.093Z,100563.75
2023-01-08T08:30:31.347Z,100566.78
2023-01-08T08:33:02.021Z,100549.97
2023-01-08T08:35:29.668Z,100558.84
2023-01-08T08:37:57.012Z,100553.75
2023-01-08T08:40:24.829Z,100552.72
2023-01-08T08:42:59.193Z,100555.56
2023-01-08T08:45:26.903Z,100529.59
2023-01-08T08:47:53.809Z,100554.13
2023-01-08T08:50:21.136Z,100556.38
2023-01-08T08:52:49.069Z,100557.41
2023-01-08T08:55:17.552Z,100553.66
2023-01-08T08:57:46.023Z,100559.72
2023-01-08T09:00:14.317Z,100551.78
2023-01-08T09:02:41.434Z,100543.84
2023-01-08T09:05:08.627Z,100546.47
2023-01-08T09:07:35.525Z,100542.50
2023-01-08T09:10:02.469Z,100536.41
2023-01-08T09:12:29.121Z,100529.13
2023-01-08T09:14:57.331Z,100522.69
2023-01-08T09:17:25.999Z,100518.78
2023-01-08T09:19:53.101Z,100510.91
2023-01-08T09:22:20.329Z,100516.22
2023-01-08T09:24:47.136Z,100513.72
2023-01-08T09:27:14.576Z,100516.50
2023-01-08T09:29:41.593Z,100508.13
2023-01-08T09:32:09.127Z,100508.47
2023-01-08T09:34:38.794Z,100515.56
2023-01-08T09:37:06.195Z,100486.38
2023-01-08T09:39:33.837Z,100497.28
2023-01-08T09:42:05.581Z,100494.03
2023-01-08T09:44:38.160Z,100486.47
2023-01-08T09:47:07.597Z,100487.13
2023-01-08T09:49:45.815Z,100481.50
2023-01-08T09:52:14.583Z,100473.22
2023-01-08T09:54:42.134Z,100471.03
2023-01-08T09:57:19.479Z,100474.25
2023-01-08T09:59:48.364Z,100473.03
2023-01-08T10:02:21.484Z,100470.63
2023-01-08T10:04:58.567Z,100413.84
2023-01-08T10:07:28.434Z,100462.94
2023-01-08T10:09:56.040Z,100468.31
2023-01-08T10:12:30.556Z,100465.00
2023-01-08T10:15:03.246Z,100458.00
2023-01-08T10:17:41.727Z,100461.53
2023-01-08T10:20:14.128Z,100450.22
2023-01-08T10:22:41.626Z,100439.53
2023-01-08T10:25:14.980Z,100447.91
2023-01-08T10:27:47.411Z,100451.59
2023-01-08T10:30:19.913Z,100443.06
2023-01-08T10:32:55.774Z,100441.00
2023-01-08T10:35:34.084Z,100435.94
2023-01-08T10:38:01.995Z,100436.97
2023-01-08T10:40:38.553Z,100432.53
2023-01-08T10:43:15.093Z,100431.91
2023-01-08T10:45:43.024Z,100420.38
2023-01-08T10:48:17.717Z,100418.97
2023-01-08T10:50:44.497Z,100410.31
2023-01-08T10:53:28.168Z,100417.03
2023-01-08T10:56:03.544Z,100393.69
2023-01-08T10:58:40.597Z,100405.69
2023-01-08T11:01:26.681Z,100398.44
2023-01-08T11:03:57.217Z,100398.81
2023-01-08T11:06:27.726Z,100383.66
2023-01-08T11:09:03.445Z,100391.28
2023-01-08T11:11:38.007Z,100397.03
2023-01-08T11:14:26.913Z,100390.81
2023-01-08T11:16:54.869Z,100390.59
2023-01-08T11:19:27.914Z,100386.22
2023-01-08T11:22:02.719Z,100381.91
2023-01-08T11:24:33.039Z,100384.53
2023-01-08T11:27:41.283Z,100378.56
2023-01-08T11:30:19.488Z,100378.97
2023-01-08T11:32:53.041Z,100381.88
2023-01-08T11:35:36.243Z,100371.75
2023-01-08T11:38:03.356Z,100359.13
2023-01-08T11:40:48.494Z,100369.97
2023-01-08T11:43:50.288Z,100367.50
2023-01-08T11:46:32.228Z,100364.09
2023-01-08T11:49:13.846Z,100352.44
2023-01-08T11:51:44.967Z,100362.03
2023-01-08T11:54:26.531Z,100364.59
2023-01-08T11:56:59.798Z,100357.03
2023-01-08T11:59:47.033Z,100353.03
2023-01-08T12:02:51.247Z,100352.16
2023-01-08T12:06:00.577Z,100348.50
2023-01-08T12:08:51.077Z,100345.59
2023-01-08T12:11:30.732Z,100340.78
2023-01-08T12:14:03.107Z,100341.19
2023-01-08T12:16:47.987Z,100337.94
2023-01-08T12:19:27.391Z,100339.53
2023-01-08T12:22:20.146Z,100342.25
2023-01-08T12:24:49.605Z,100338.19
2023-01-08T12:27:19.483Z,100341.06
2023-01-08T12:30:19.022Z,100339.00
2023-01-08T12:32:54.921Z,100332.47
2023-01-08T12:35:32.673Z,100336.72
2023-01-08T12:38:09.751Z,100326.66
2023-01-08T12:40:41.761Z,100331.13
2023-01-08T12:43:14.876Z,100331.50
2023-01-08T12:45:46.484Z,100325.31
2023-01-08T12:48:27.018Z,100325.88
2023-01-08T12:51:19.328Z,100318.97
2023-01-08T12:54:02.660Z,100308.13
2023-01-08T12:56:33.639Z,100322.56
2023-01-08T12:59:29.205Z,100325.22
2023-01-08T13:02:31.249Z,100324.47
2023-01-08T13:04:58.273Z,100326.19
2023-01-08T13:07:30.559Z,100321.16
2023-01-08T13:10:05.309Z,100327.94
2023-01-08T13:12:36.527Z,100329.34
2023-01-08T13:15:04.605Z,100329.34
2023-01-08T13:17:31.384Z,100329.16
2023-01-08T13:20:04.412Z,100321.75
2023-01-08T13:22:33.856Z,100327.31
2023-01-08T13:25:15.801Z,100332.19
2023-01-08T13:27:43.171Z,100332.97
2023-01-08T13:30:38.310Z,100334.19
2023-01-08T13:33:34.235Z,100334.94
2023-01-08T13:36:13.102Z,100331.66
2023-01-08T13:38:41.212Z,100332.66
2023-01-08T13:41:34.507Z,100339.22
2023-01-08T13:44:07.116Z,100334.06
2023-01-08T13:46:38.132Z,100332.44
2023-01-08T13:49:08.306Z,100328.34
2023-01-08T13:51:46.514Z,100315.78
2023-01-08T13:54:13.178Z,100337.09
2023-01-08T13:56:45.537Z,100324.84
2023-01-08T13:59:34.060Z,100326.88
2023-01-08T14:02:01.772Z,100330.16
2023-01-08T14:04:28.655Z,100327.31
2023-01-08T14:07:13.322Z,100326.47
2023-01-08T14:09:39.957Z,100322.81
2023-01-08T14:12:10.208Z,100324.00
2023-01-08T14:14:39.136Z,100320.91
2023-01-08T14:17:07.066Z,100330.75
2023-01-08T14:19:33.977Z,100327.09
2023-01-08T14:22:04.033Z,100326.53
2023-01-08T14:24:30.693Z,100328.84
2023-01-08T14:27:03.072Z,100325.25
2023-01-08T14:29:34.859Z,100334.59
2023-01-08T14:32:01.810Z,100331.09
2023-01-08T14:34:31.961Z,100330.25
2023-01-08T14:36:58.940Z,100325.06
2023-01-08T14:39:32.198Z,100330.41
2023-01-08T14:42:24.945Z,100323.66
2023-01-08T14:44:57.083Z,100320.84
2023-01-08T14:47:29.285Z,100324.88
2023-01-08T14:49:56.680Z,100322.44
2023-01-08T14:52:23.486Z,100320.25
2023-01-08T14:54:56.331Z,100317.47
2023-01-08T14:57:24.341Z,100316.03
2023-01-08T14:59:56.929Z,100315.13
2023-01-08T15:02:33.578Z,100316.44
2023-01-08T15:05:18.737Z,100315.72
2023-01-08T15:07:55.823Z,100319.72
2023-01-08T15:10:35.331Z,100314.63
2023-01-08T15:13:04.036Z,100311.88
2023-01-08T15:15:33.022Z,100297.53
2023-01-08T15:18:00.039Z,100316.09
2023-01-08T15:20:32.086Z,100319.16
2023-01-08T15:22:59.757Z,100306.69
2023-01-08T15:25:28.696Z,100311.13
2023-01-08T15:28:03.213Z,100318.78
2023-01-08T15:30:45.518Z,100316.13
2023-01-08T15:33:22.913Z,100308.94
2023-01-08T15:35:50.488Z,100306.31
2023-01-08T15:38:20.876Z,100321.53
2023-01-08T15:40:48.545Z,100316.66
2023-01-08T15:43:16.898Z,100320.69
2023-01-08T15:45:46.426Z,100312.78
2023-01-08T15:48:13.517Z,100315.38
2023-01-08T15:50:43.171Z,100320.06
2023-01-08T15:53:24.977Z,100313.81
2023-01-08T15:55:51.937Z,100314.06
2023-01-08T15:58:18.764Z,100321.50
2023-01-08T16:00:46.713Z,100323.81
2023-01-08T16:03:14.848Z,100317.13
2023-01-08T16:05:41.818Z,100328.59
2023-01-08T16:08:08.681Z,100326.66
2023-01-08T16:10:35.341Z,100326.28
2023-01-08T16:13:02.213Z,100325.44
2023-01-08T16:15:30.997Z,100269.63
2023-01-08T16:17:59.220Z,100327.47
2023-01-08T16:20:26.181Z,100320.59
2023-01-08T16:22:54.791Z,100337.53
2023-01-08T16:25:21.486Z,100331.84
2023-01-08T16:27:48.127Z,100330.97
2023-01-08T16:30:15.611Z,100338.47
2023-01-08T16:32:43.047Z,100328.50
2023-01-08T16:35:10.999Z,100327.16
2023-01-08T16:37:38.173Z,100331.97
2023-01-08T16:40:05.429Z,100329.59
2023-01-08T16:42:32.244Z,100330.03
2023-01-08T16:44:59.018Z,100333.38
2023-01-08T16:47:25.689Z,100322.00
2023-01-08T16:49:52.666Z,100331.66
2023-01-08T16:52:19.338Z,100315.22
2023-01-08T16:54:46.537Z,100326.47
2023-01-08T16:57:13.641Z,100338.09
2023-01-08T16:59:40.587Z,100343.88
2023-01-08T17:02:07.415Z,100342.22
2023-01-08T17:04:34.204Z,100343.38
2023-01-08T17:07:02.958Z,100340.22
2023-01-08T17:09:29.948Z,100345.28
2023-01-08T17:11:56.600Z,100345.97
2023-01-08T17:14:23.400Z,100352.31
2023-01-08T17:16:50.059Z,100351.34
2023-01-08T17:19:17.617Z,100348.34
2023-01-08T17:21:46.061Z,100339.41
2023-01-08T17:24:13.260Z,100344.22
2023-01-08T17:26:40.131Z,100343.88
2023-01-08T17:29:06.977Z,100346.00
2023-01-08T17:31:40.307Z,100348.72
2023-01-08T17:34:11.421Z,100352.47
2023-01-08T17:36:38.688Z,100360.25
2023-01-08T17:39:05.613Z,100358.75
2023-01-08T17:41:51.233Z,100356.06
2023-01-08T17:44:18.000Z,100365.16
2023-01-08T17:46:45.458Z,100365.34
2023-01-08T17:49:14.699Z,100361.69
2023-01-08T17:51:44.164Z,100358.69
2023-01-08T17:54:12.640Z,100353.22
2023-01-08T17:56:39.432Z,100363.28
2023-01-08T17:59:06.646Z,100360.72
2023-01-08T18:01:35.070Z,100355.91
2023-01-08T18:04:02.193Z,100363.22
2023-01-08T18:06:29.235Z,100361.72
2023-01-08T18:08:55.986Z,100367.16
2023-01-08T18:11:25.370Z,100362.25
2023-01-08T18:14:00.602Z,100363.88
2023-01-08T18:16:28.196Z,100356.41
2023-01-08T18:18:58.488Z,100363.94
2023-01-08T18:21:26.572Z,100358.13
2023-01-08T18:23:53.454Z,100355.28
2023-01-08T18:26:20.899Z,100357.75
2023-01-08T18:28:48.417Z,100357.00
2023-01-08T18:31:15.686Z,100358.59
2023-01-08T18:33:42.459Z,100353.09
2023-01-08T18:36:11.815Z,100324.44
2023-01-08T18:38:40.729Z,100357.81
2023-01-08T18:41:08.281Z,100360.22
2023-01-08T18:43:36.053Z,100357.34
2023-01-08T18:46:07.472Z,100357.97
2023-01-08T18:48:35.673Z,100363.81
2023-01-08T18:51:05.679Z,100347.13
2023-01-08T18:53:33.397Z,100359.41
2023-01-08T18:56:03.571Z,100359.00
2023-01-08T18:58:30.416Z,100350.56
2023-01-08T19:01:04.176Z,100353.94
2023-01-08T19:03:30.883Z,100353.56
2023-01-08T19:05:57.545Z,100349.56
2023-01-08T19:08:24.858Z,100352.50
2023-01-08T19:10:51.903Z,100348.47
2023-01-08T19:13:19.326Z,100359.47
2023-01-08T19:15:46.763Z,100351.81
2023-01-08T19:18:14.000Z,100361.34
2023-01-08T19:20:46.245Z,100358.00
2023-01-08T19:23:13.858Z,100363.56
2023-01-08T19:25:40.729Z,100358.69
2023-01-08T19:28:07.564Z,100360.66
2023-01-08T19:30:34.733Z,100360.41
2023-01-08T19:33:01.604Z,100349.84
2023-01-08T19:35:28.960Z,100359.53
2023-01-08T19:37:55.875Z,100333.19
2023-01-08T19:40:22.681Z,100347.81
2023-01-08T19:43:08.061Z,100342.66
2023-01-08T19:45:37.586Z,100348.38
2023-01-08T19:48:04.457Z,100345.56
2023-01-08T19:50:32.161Z,100351.66
2023-01-08T19:52:58.917Z,100342.25
2023-01-08T19:55:25.945Z,100339.88
2023-01-08T19:57:54.551Z,100349.78
2023-01-08T20:00:24.115Z,100335.63
2023-01-08T20:02:51.748Z,100345.81
2023-01-08T20:05:18.672Z,100340.28
2023-01-08T20:07:45.574Z,100326.72
2023-01-08T20:10:13.555Z,100330.19
2023-01-08T20:12:40.241Z,100332.81
2023-01-08T20:15:07.557Z,100323.56
2023-01-08T20:17:34.255Z,100340.59
2023-01-08T20:20:00.900Z,100339.97
2023-01-08T20:22:29.139Z,100334.63
2023-01-08T20:24:57.688Z,100330.63
2023-01-08T20:27:25.150Z,100327.59
2023-01-08T20:29:51.792Z,100327.88
2023-01-08T20:32:20.430Z,100318.84
2023-01-08T20:34:48.778Z,100318.38
2023-01-08T20:37:15.430Z,100317.78
2023-01-08T20:39:42.085Z,100319.59
2023-01-08T20:42:10.125Z,100326.75
2023-01-08T20:44:36.947Z,100321.34
2023-01-08T20:47:03.860Z,100316.16
2023-01-08T20:49:30.807Z,100311.56
2023-01-08T20:51:59.808Z,100317.44
2023-01-08T20:54:28.227Z,100314.28
2023-01-08T20:56:56.323Z,100317.59
2023-01-08T20:59:26.817Z,100318.13
2023-01-08T21:01:53.672Z,100315.41
2023-01-08T21:04:20.462Z,100313.97
2023-01-08T21:06:47.139Z,100319.31
2023-01-08T21:09:16.214Z,100316.31
2023-01-08T21:11:42.921Z,100317.06
2023-01-08T21:14:10.523Z,100322.19
2023-01-08T21:16:39.711Z,100300.44
2023-01-08T21:19:09.767Z,100319.03
2023-01-08T21:21:39.981Z,100323.75
2023-01-08T21:24:09.128Z,100316.00
2023-01-08T21:26:39.836Z,100324.59
2023-01-08T21:29:07.905Z,100321.50
2023-01-08T21:31:35.442Z,100325.13
2023-01-08T21:34:03.413Z,100327.22
2023-01-08T21:36:31.845Z,100325.13
2023-01-08T21:39:00.607Z,100324.59
2023-01-08T21:41:47.192Z,100331.06
2023-01-08T21:44:40.297Z,100318.66
2023-01-08T21:47:16.662Z,100320.69
2023-01-08T21:49:45.242Z,100321.66
2023-01-08T21:52:30.453Z,100318.66
2023-01-08T21:54:58.317Z,100322.47
2023-01-08T21:57:27.804Z,100327.28
2023-01-08T21:59:55.361Z,100322.34
2023-01-08T22:02:24.266Z,100329.41
2023-01-08T22:04:54.314Z,100323.22
2023-01-08T22:07:21.202Z,100325.63
2023-01-08T22:09:47.850Z,100331.59
2023-01-08T22:12:16.134Z,100329.34
2023-01-08T22:14:43.031Z,100325.88
2023-01-08T22:17:10.832Z,100327.97
2023-01-08T22:19:39.153Z,100327.06
2023-01-08T22:22:08.176Z,100318.22
2023-01-08T22:24:36.240Z,100320.97
2023-01-08T22:27:02.944Z,100322.75
2023-01-08T22:29:29.576Z,100321.09
2023-01-08T22:31:56.292Z,100317.34
2023-01-08T22:34:23.057Z,100313.34
2023-01-08T22:36:51.159Z,100311.91
2023-01-08T22:39:18.365Z,100316.81
2023-01-08T22:41:45.441Z,100323.34
2023-01-08T22:44:12.475Z,100312.09
2023-01-08T22:46:39.109Z,100308.47
2023-01-08T22:49:05.929Z,100303.00
2023-01-08T22:51:32.682Z,100304.34
2023-01-08T22:53:59.673Z,100307.72
2023-01-08T22:56:26.715Z,100317.28
2023-01-08T22:58:53.828Z,100310.06
2023-01-08T23:01:27.508Z,100312.16
2023-01-08T23:03:56.875Z,100307.53
2023-01-08T23:06:26.073Z,100310.88
2023-01-08T23:08:53.432Z,100300.50
2023-01-08T23:11:22.011Z,100311.19
2023-01-08T23:13:49.368Z,100299.66
2023-01-08T23:16:17.752Z,100306.34
2023-01-08T23:18:44.869Z,100295.78
2023-01-08T23:21:17.421Z,100314.19
2023-01-08T23:23:45.005Z,100322.47
2023-01-08T23:26:26.359Z,100315.22
2023-01-08T23:28:54.040Z,100310.25
2023-01-08T23:31:27.413Z,100314.13
2023-01-08T23:33:54.828Z,100313.38
2023-01-08T23:36:22.232Z,100300.66
2023-01-08T23:38:51.271Z,100308.47
2023-01-08T23:41:18.991Z,100308.03
2023-01-08T23:43:46.353Z,100311.28
2023-01-08T23:46:13.866Z,100307.59
2023-01-08T23:48:41.064Z,100303.28
2023-01-08T23:51:07.915Z,100294.22
2023-01-08T23:53:34.725Z,100317.28
2023-01-08T23:56:01.476Z,100317.38
2023-01-08T23:58:28.124Z,100317.59
